createdAt,value
2017-06-20T00:01:01.219Z,66.87
2017-06-20T00:03:28.753Z,66.18
2017-06-20T00:05:56.272Z,66.67
2017-06-20T00:08:23.834Z,66.46
2017-06-20T00:10:51.349Z,66.79
2017-06-20T00:13:18.958Z,67.02
2017-06-20T00:15:46.541Z,66.39
2017-06-20T00:18:14.140Z,66.86
2017-06-20T00:20:41.933Z,66.38
2017-06-20T00:23:09.506Z,67.70
2017-06-20T00:25:37.045Z,67.52
2017-06-20T00:28:04.556Z,67.34
2017-06-20T00:30:32.223Z,67.12
2017-06-20T00:32:59.791Z,66.50
2017-06-20T00:35:27.315Z,66.34
2017-06-20T00:37:54.904Z,66.60
2017-06-20T00:40:22.445Z,66.91
2017-06-20T00:42:49.982Z,66.68
2017-06-20T00:45:17.568Z,66.85
2017-06-20T00:47:45.353Z,66.82
2017-06-20T00:50:12.859Z,66.63
2017-06-20T00:52:40.401Z,68.27
2017-06-20T00:55:07.920Z,69.04
2017-06-20T00:57:35.717Z,68.39
2017-06-20T01:00:04.433Z,69.50
2017-06-20T01:02:31.985Z,69.02
2017-06-20T01:04:59.523Z,69.88
2017-06-20T01:07:27.102Z,68.13
2017-06-20T01:09:55.289Z,67.60
2017-06-20T01:12:22.812Z,68.42
2017-06-20T01:14:50.357Z,67.75
2017-06-20T01:17:17.874Z,67.30
2017-06-20T01:19:45.401Z,67.48
2017-06-20T01:22:12.945Z,67.02
2017-06-20T01:24:40.456Z,67.18
2017-06-20T01:27:07.978Z,67.30
2017-06-20T01:29:35.573Z,68.04
2017-06-20T01:32:03.222Z,67.87
2017-06-20T01:34:31.125Z,67.67
2017-06-20T01:36:58.795Z,66.94
2017-06-20T01:39:26.583Z,68.29
2017-06-20T01:41:54.340Z,70.17
2017-06-20T01:44:21.883Z,68.86
2017-06-20T01:46:49.481Z,67.85
2017-06-20T01:49:17.065Z,67.91
2017-06-20T01:51:44.635Z,68.28
2017-06-20T01:54:12.256Z,69.18
2017-06-20T01:56:39.879Z,68.56
2017-06-20T01:59:07.486Z,68.01
2017-06-20T02:01:35.942Z,68.21
2017-06-20T02:04:03.904Z,68.14
2017-06-20T02:06:31.825Z,67.86
2017-06-20T02:08:59.451Z,67.97
2017-06-20T02:11:27.034Z,69.47
2017-06-20T02:13:56.332Z,69.00
2017-06-20T02:16:26.471Z,69.00
2017-06-20T02:18:54.177Z,69.13
2017-06-20T02:21:21.744Z,69.16
2017-06-20T02:23:49.330Z,69.11
2017-06-20T02:26:16.837Z,70.61
2017-06-20T02:28:44.336Z,69.77
2017-06-20T02:31:11.914Z,70.57
2017-06-20T02:33:39.433Z,70.47
2017-06-20T02:36:06.969Z,70.22
2017-06-20T02:38:34.555Z,71.59
2017-06-20T02:41:02.052Z,74.04
2017-06-20T02:43:29.553Z,73.95
2017-06-20T02:45:57.157Z,72.02
2017-06-20T02:48:24.676Z,71.06
2017-06-20T02:50:52.194Z,70.09
2017-06-20T02:53:19.753Z,69.44
2017-06-20T02:55:47.298Z,69.63
2017-06-20T02:58:14.864Z,70.03
2017-06-20T03:00:42.447Z,71.06
2017-06-20T03:03:09.963Z,70.52
2017-06-20T03:05:37.470Z,69.69
2017-06-20T03:08:05.097Z,69.53
2017-06-20T03:10:32.750Z,69.99
2017-06-20T03:13:00.269Z,70.53
2017-06-20T03:15:27.841Z,70.65
2017-06-20T03:17:55.360Z,69.80
2017-06-20T03:20:22.920Z,69.33
2017-06-20T03:22:50.532Z,70.02
2017-06-20T03:25:18.050Z,69.81
2017-06-20T03:27:45.557Z,69.67
2017-06-20T03:30:13.206Z,69.84
2017-06-20T03:32:40.699Z,70.33
2017-06-20T03:35:08.226Z,70.63
2017-06-20T03:37:35.836Z,69.73
2017-06-20T03:40:03.378Z,70.58
2017-06-20T03:42:30.890Z,72.74
2017-06-20T03:44:58.445Z,71.10
2017-06-20T03:47:26.282Z,71.25
2017-06-20T03:49:53.820Z,70.02
2017-06-20T03:52:21.450Z,69.72
2017-06-20T03:54:48.984Z,69.48
2017-06-20T03:57:16.489Z,71.15
2017-06-20T03:59:44.083Z,68.78
2017-06-20T04:02:11.667Z,68.24
2017-06-20T04:04:39.180Z,67.93
2017-06-20T04:07:06.704Z,68.29
2017-06-20T04:09:34.314Z,67.80
2017-06-20T04:12:01.868Z,67.49
2017-06-20T04:14:29.434Z,67.60
2017-06-20T04:16:56.994Z,67.33
2017-06-20T04:19:24.511Z,67.85
2017-06-20T04:21:52.088Z,67.06
2017-06-20T04:24:19.920Z,67.82
2017-06-20T04:26:48.132Z,70.40
2017-06-20T04:29:16.232Z,70.95
2017-06-20T04:31:44.602Z,68.75
2017-06-20T04:34:12.137Z,68.39
2017-06-20T04:36:39.716Z,67.61
2017-06-20T04:39:07.264Z,67.56
2017-06-20T04:41:34.776Z,68.73
2017-06-20T04:44:02.312Z,68.45
2017-06-20T04:46:29.877Z,69.29
2017-06-20T04:48:57.458Z,68.43
2017-06-20T04:51:25.116Z,67.88
2017-06-20T04:54:02.633Z,66.68
2017-06-20T04:56:30.164Z,66.84
2017-06-20T04:58:57.874Z,66.52
2017-06-20T05:01:33.205Z,67.04
2017-06-20T05:04:00.866Z,67.01
2017-06-20T05:06:35.861Z,66.75
2017-06-20T05:09:03.434Z,64.83
2017-06-20T05:11:31.197Z,66.32
2017-06-20T05:13:59.229Z,66.16
2017-06-20T05:16:26.766Z,66.61
2017-06-20T05:18:54.316Z,65.71
2017-06-20T05:21:21.919Z,65.19
2017-06-20T05:23:50.243Z,65.30
2017-06-20T05:26:18.002Z,65.38
2017-06-20T05:28:45.600Z,65.59
2017-06-20T05:31:13.799Z,64.94
2017-06-20T05:33:41.561Z,64.64
2017-06-20T05:36:09.097Z,64.57
2017-06-20T05:38:36.689Z,64.13
2017-06-20T05:41:04.434Z,63.34
2017-06-20T05:43:31.943Z,63.27
2017-06-20T05:45:59.548Z,63.38
2017-06-20T05:48:28.008Z,61.60
2017-06-20T05:50:55.612Z,62.52
2017-06-20T05:53:23.265Z,62.68
2017-06-20T05:55:50.806Z,62.53
2017-06-20T05:58:19.157Z,62.39
2017-06-20T06:00:46.776Z,61.50
2017-06-20T06:03:15.209Z,61.22
2017-06-20T06:05:43.123Z,61.24
2017-06-20T06:08:10.858Z,61.44
2017-06-20T06:10:38.380Z,60.82
2017-06-20T06:13:05.933Z,60.33
2017-06-20T06:15:33.494Z,60.19
2017-06-20T06:18:01.018Z,60.83
2017-06-20T06:20:28.526Z,60.45
2017-06-20T06:22:56.098Z,59.86
2017-06-20T06:25:23.707Z,60.17
2017-06-20T06:27:51.251Z,60.21
2017-06-20T06:30:18.895Z,59.45
2017-06-20T06:32:46.462Z,59.42
2017-06-20T06:35:13.985Z,59.24
2017-06-20T06:37:41.560Z,58.76
2017-06-20T06:40:09.109Z,58.23
2017-06-20T06:42:36.675Z,58.24
2017-06-20T06:45:04.290Z,58.21
2017-06-20T06:47:31.823Z,57.94
2017-06-20T06:49:59.354Z,57.75
2017-06-20T06:52:26.927Z,57.54
2017-06-20T06:54:54.434Z,56.85
2017-06-20T06:57:21.942Z,57.17
2017-06-20T06:59:49.504Z,56.54
2017-06-20T07:02:17.058Z,57.21
2017-06-20T07:04:44.571Z,56.31
2017-06-20T07:07:12.164Z,55.68
2017-06-20T07:09:39.786Z,55.98
2017-06-20T07:12:07.309Z,56.41
2017-06-20T07:14:34.859Z,56.03
2017-06-20T07:17:02.443Z,55.75
2017-06-20T07:19:29.968Z,54.89
2017-06-20T07:21:57.494Z,54.05
2017-06-20T07:24:25.034Z,54.34
2017-06-20T07:26:52.607Z,53.65
2017-06-20T07:29:20.113Z,54.65
2017-06-20T07:31:47.687Z,54.90
2017-06-20T07:34:15.208Z,54.22
2017-06-20T07:36:42.779Z,53.57
2017-06-20T07:39:10.330Z,53.55
2017-06-20T07:41:37.911Z,53.44
2017-06-20T07:44:05.430Z,53.39
2017-06-20T07:46:33.103Z,52.92
2017-06-20T07:49:00.613Z,52.24
2017-06-20T07:51:28.124Z,51.92
2017-06-20T07:53:55.680Z,51.09
2017-06-20T07:56:23.186Z,49.87
2017-06-20T07:58:50.690Z,50.03
2017-06-20T08:01:18.277Z,49.46
2017-06-20T08:03:45.820Z,49.33
2017-06-20T08:06:13.382Z,48.08
2017-06-20T08:08:40.914Z,47.68
2017-06-20T08:11:08.417Z,48.22
2017-06-20T08:13:35.994Z,48.23
2017-06-20T08:16:03.614Z,46.24
2017-06-20T08:18:31.126Z,46.41
2017-06-20T08:21:04.168Z,45.23
2017-06-20T08:23:31.678Z,45.21
2017-06-20T08:25:59.182Z,44.86
2017-06-20T08:28:26.716Z,45.20
2017-06-20T08:30:55.072Z,44.35
2017-06-20T08:33:22.631Z,44.29
2017-06-20T08:35:50.161Z,43.55
2017-06-20T08:38:17.710Z,43.39
2017-06-20T08:40:45.272Z,42.10
2017-06-20T08:43:12.803Z,42.74
2017-06-20T08:45:40.348Z,42.96
2017-06-20T08:48:07.875Z,42.00
2017-06-20T08:50:35.403Z,40.62
2017-06-20T08:53:02.948Z,39.63
2017-06-20T08:55:30.485Z,38.58
2017-06-20T08:57:58.046Z,39.44
2017-06-20T09:00:25.971Z,39.07
2017-06-20T09:02:53.477Z,39.43
2017-06-20T09:05:21.038Z,40.37
2017-06-20T09:07:48.628Z,38.29
2017-06-20T09:10:16.123Z,37.86
2017-06-20T09:12:43.621Z,37.74
2017-06-20T09:15:11.262Z,38.10
2017-06-20T09:17:38.777Z,37.84
2017-06-20T09:20:06.290Z,38.28
2017-06-20T09:22:33.866Z,38.06
2017-06-20T09:25:01.391Z,37.90
2017-06-20T09:27:28.908Z,38.41
2017-06-20T09:29:56.462Z,38.00
2017-06-20T09:32:24.078Z,36.36
2017-06-20T09:34:51.645Z,36.52
2017-06-20T09:37:19.202Z,37.88
2017-06-20T09:39:46.780Z,37.73
2017-06-20T09:42:14.412Z,37.25
2017-06-20T09:44:41.951Z,36.29
2017-06-20T09:47:09.581Z,36.13
2017-06-20T09:49:37.116Z,36.02
2017-06-20T09:52:04.671Z,36.08
2017-06-20T09:54:32.290Z,35.78
2017-06-20T09:56:59.934Z,36.25
2017-06-20T09:59:27.494Z,36.91
2017-06-20T10:01:55.071Z,34.63
2017-06-20T10:04:22.639Z,34.64
2017-06-20T10:06:50.232Z,34.87
2017-06-20T10:09:17.778Z,35.56
2017-06-20T10:11:45.340Z,35.54
2017-06-20T10:14:13.135Z,35.65
2017-06-20T10:16:40.766Z,35.51
2017-06-20T10:19:08.381Z,35.03
2017-06-20T10:21:35.890Z,34.61
2017-06-20T10:24:03.456Z,34.91
2017-06-20T10:26:30.986Z,34.60
2017-06-20T10:28:58.520Z,34.65
2017-06-20T10:31:26.209Z,33.36
2017-06-20T10:33:53.798Z,32.39
2017-06-20T10:36:21.349Z,32.48
2017-06-20T10:38:48.979Z,31.95
2017-06-20T10:41:16.541Z,31.84
2017-06-20T10:47:05.395Z,33.78
2017-06-20T10:49:36.863Z,34.30
2017-06-20T10:52:04.422Z,35.00
2017-06-20T10:54:35.708Z,35.29
2017-06-20T10:57:07.557Z,36.15
2017-06-20T10:59:42.233Z,36.07
2017-06-20T11:02:10.018Z,36.52
2017-06-20T11:04:37.577Z,36.51
2017-06-20T11:07:05.168Z,37.57
2017-06-20T11:09:32.760Z,37.42
2017-06-20T11:12:00.319Z,37.00
2017-06-20T11:14:27.874Z,37.32
2017-06-20T11:16:55.525Z,37.04
2017-06-20T11:19:23.088Z,36.92
2017-06-20T11:21:50.642Z,36.92
2017-06-20T11:24:18.289Z,36.11
2017-06-20T11:26:46.028Z,36.04
2017-06-20T11:29:13.638Z,36.30
2017-06-20T11:31:41.490Z,35.78
2017-06-20T11:34:09.114Z,36.36
2017-06-20T11:36:40.241Z,36.67
2017-06-20T11:39:07.870Z,39.88
2017-06-20T11:41:39.232Z,43.84
2017-06-20T11:44:06.851Z,45.01
2017-06-20T11:46:34.437Z,45.91
2017-06-20T11:49:02.002Z,46.41
2017-06-20T11:51:29.578Z,46.33
2017-06-20T11:53:57.182Z,45.68
2017-06-20T11:56:32.803Z,45.15
2017-06-20T11:59:00.406Z,44.53
2017-06-20T12:01:28.199Z,44.73
2017-06-20T12:03:59.601Z,44.59
2017-06-20T12:06:27.202Z,45.60
2017-06-20T12:08:54.771Z,44.24
2017-06-20T12:11:22.316Z,43.71
2017-06-20T12:13:49.918Z,43.58
2017-06-20T12:16:17.689Z,43.83
2017-06-20T12:18:45.438Z,42.75
2017-06-20T12:21:13.025Z,42.56
2017-06-20T12:23:44.880Z,41.26
2017-06-20T12:26:19.588Z,40.15
2017-06-20T12:28:47.168Z,38.44
2017-06-20T12:31:18.934Z,39.18
2017-06-20T12:33:46.623Z,38.69
2017-06-20T12:36:14.169Z,39.01
2017-06-20T12:38:41.753Z,39.37
2017-06-20T12:41:09.304Z,38.88
2017-06-20T12:43:36.927Z,38.87
2017-06-20T12:46:04.522Z,38.67
2017-06-20T12:48:32.289Z,38.71
2017-06-20T12:50:59.840Z,39.42
2017-06-20T12:53:27.434Z,38.52
2017-06-20T12:55:55.235Z,39.00
2017-06-20T12:58:22.772Z,39.03
2017-06-20T13:00:50.820Z,38.59
2017-06-20T13:03:18.413Z,37.61
2017-06-20T13:05:45.982Z,37.65
2017-06-20T13:08:13.592Z,36.44
2017-06-20T13:10:41.215Z,36.34
2017-06-20T13:13:08.806Z,36.89
2017-06-20T13:15:36.390Z,37.31
2017-06-20T13:18:03.969Z,37.64
2017-06-20T13:20:31.770Z,38.00
2017-06-20T13:23:20.261Z,38.33
2017-06-20T13:25:47.786Z,38.92
2017-06-20T13:28:15.354Z,38.27
2017-06-20T13:30:49.947Z,38.24
2017-06-20T13:33:17.558Z,37.77
2017-06-20T13:35:45.172Z,38.35
2017-06-20T13:38:20.437Z,38.45
2017-06-20T13:40:48.072Z,38.39
2017-06-20T13:43:15.657Z,38.31
2017-06-20T13:45:43.293Z,37.96
2017-06-20T13:48:10.802Z,38.00
2017-06-20T13:50:38.630Z,38.57
2017-06-20T13:53:06.197Z,38.33
2017-06-20T13:55:33.752Z,38.81
2017-06-20T13:58:01.299Z,38.00
2017-06-20T14:00:28.916Z,37.89
2017-06-20T14:02:56.661Z,37.44
2017-06-20T14:05:24.166Z,37.64
2017-06-20T14:07:51.739Z,37.50
2017-06-20T14:10:19.327Z,38.96
2017-06-20T14:12:46.892Z,38.94
2017-06-20T14:15:14.464Z,38.04
2017-06-20T14:17:42.053Z,38.22
2017-06-20T14:20:09.611Z,37.88
2017-06-20T14:22:37.269Z,37.71
2017-06-20T14:25:05.272Z,38.02
2017-06-20T14:27:32.816Z,37.98
2017-06-20T14:30:00.396Z,38.61
2017-06-20T14:32:29.537Z,38.20
2017-06-20T14:34:57.089Z,38.03
2017-06-20T14:37:24.652Z,37.80
2017-06-20T14:39:52.259Z,37.50
2017-06-20T14:42:19.901Z,38.14
2017-06-20T14:44:47.428Z,37.83
2017-06-20T14:47:15.000Z,37.43
2017-06-20T14:49:42.524Z,38.84
2017-06-20T14:52:10.065Z,37.82
2017-06-20T14:54:37.644Z,37.14
2017-06-20T14:57:05.231Z,38.12
2017-06-20T14:59:32.761Z,38.88
2017-06-20T15:02:00.495Z,37.92
2017-06-20T15:04:28.053Z,37.95
2017-06-20T15:06:55.643Z,38.69
2017-06-20T15:09:23.843Z,39.18
2017-06-20T15:11:51.454Z,39.18
2017-06-20T15:14:19.055Z,39.43
2017-06-20T15:16:46.637Z,40.31
2017-06-20T15:19:14.161Z,38.57
2017-06-20T15:21:41.978Z,39.26
2017-06-20T15:24:09.606Z,38.20
2017-06-20T15:26:37.186Z,37.77
2017-06-20T15:29:04.993Z,38.11
2017-06-20T15:31:32.577Z,38.32
2017-06-20T15:34:00.309Z,39.51
2017-06-20T15:36:27.862Z,38.73
2017-06-20T15:39:02.588Z,39.07
2017-06-20T15:41:38.572Z,38.85
2017-06-20T15:44:06.137Z,38.63
2017-06-20T15:46:40.593Z,38.38
2017-06-20T15:49:08.232Z,39.25
2017-06-20T15:51:35.784Z,38.24
2017-06-20T15:54:03.354Z,38.82
2017-06-20T15:56:30.975Z,38.50
2017-06-20T15:58:59.507Z,38.64
2017-06-20T16:01:27.213Z,40.53
2017-06-20T16:03:54.754Z,40.89
2017-06-20T16:06:22.313Z,41.30
2017-06-20T16:08:49.884Z,41.43
2017-06-20T16:11:17.429Z,41.71
2017-06-20T16:13:45.682Z,41.66
2017-06-20T16:16:14.163Z,42.88
2017-06-20T16:18:42.390Z,42.57
2017-06-20T16:21:18.089Z,41.97
2017-06-20T16:23:46.202Z,42.03
2017-06-20T16:26:14.290Z,42.27
2017-06-20T16:28:41.960Z,42.19
2017-06-20T16:31:09.553Z,42.18
2017-06-20T16:33:37.428Z,42.03
2017-06-20T16:36:04.978Z,42.82
2017-06-20T16:38:32.584Z,42.81
2017-06-20T16:41:03.657Z,42.27
2017-06-20T16:43:31.170Z,43.05
2017-06-20T16:45:59.029Z,43.24
2017-06-20T16:48:26.618Z,43.31
2017-06-20T16:50:54.292Z,43.54
2017-06-20T16:53:22.023Z,43.44
2017-06-20T16:55:49.534Z,44.12
2017-06-20T16:58:17.072Z,44.19
2017-06-20T17:00:52.379Z,44.36
2017-06-20T17:03:21.035Z,43.90
2017-06-20T17:05:49.925Z,43.79
2017-06-20T17:36:01.118Z,46.58
2017-06-20T17:38:28.617Z,46.75
2017-06-20T17:40:56.123Z,46.70
2017-06-20T17:43:23.700Z,46.36
2017-06-20T17:45:51.223Z,47.03
2017-06-20T17:48:18.744Z,47.05
2017-06-20T17:50:46.362Z,47.61
2017-06-20T17:53:13.869Z,47.00
2017-06-20T17:55:41.396Z,47.45
2017-06-20T17:58:08.951Z,47.34
2017-06-20T18:00:36.604Z,47.58
2017-06-20T18:03:04.109Z,47.84
2017-06-20T18:05:31.613Z,47.76
2017-06-20T18:07:59.218Z,48.33
2017-06-20T18:10:26.743Z,48.42
2017-06-20T18:12:54.264Z,48.99
2017-06-20T18:15:21.823Z,49.08
2017-06-20T18:17:49.338Z,49.72
2017-06-20T18:20:16.865Z,49.58
2017-06-20T18:22:44.569Z,49.10
2017-06-20T18:25:12.087Z,49.68
2017-06-20T18:27:39.604Z,50.94
2017-06-20T18:30:10.362Z,51.07
2017-06-20T18:32:37.901Z,51.38
2017-06-20T18:35:05.438Z,51.87
2017-06-20T18:37:33.141Z,52.37
2017-06-20T18:40:00.744Z,52.33
2017-06-20T18:42:28.321Z,52.34
2017-06-20T18:44:55.899Z,52.58
2017-06-20T18:47:23.660Z,52.64
2017-06-20T18:49:51.182Z,52.83
2017-06-20T18:52:18.742Z,52.52
2017-06-20T18:54:46.280Z,52.20
2017-06-20T18:57:13.859Z,52.18
2017-06-20T18:59:41.468Z,53.04
2017-06-20T19:02:09.045Z,53.10
2017-06-20T19:04:36.854Z,53.56
2017-06-20T19:07:04.390Z,53.24
2017-06-20T19:09:32.016Z,53.42
2017-06-20T19:11:59.646Z,53.06
2017-06-20T19:14:27.176Z,53.23
2017-06-20T19:16:54.738Z,53.38
2017-06-20T19:19:22.259Z,53.73
2017-06-20T19:21:49.769Z,53.61
2017-06-20T19:24:17.351Z,53.54
2017-06-20T19:26:44.978Z,53.55
2017-06-20T19:29:12.534Z,53.69
2017-06-20T19:31:40.148Z,53.72
2017-06-20T19:34:07.760Z,53.79
2017-06-20T19:36:35.282Z,53.74
2017-06-20T19:39:02.871Z,53.73
2017-06-20T19:41:30.406Z,53.61
2017-06-20T19:43:57.971Z,53.79
2017-06-20T19:46:25.546Z,53.90
2017-06-20T19:48:53.134Z,54.34
2017-06-20T19:51:20.665Z,54.45
2017-06-20T19:53:48.221Z,54.12
2017-06-20T19:56:15.748Z,54.38
2017-06-20T19:58:43.265Z,54.50
2017-06-20T20:01:10.857Z,54.68
2017-06-20T20:03:38.441Z,54.50
2017-06-20T20:06:06.034Z,54.70
2017-06-20T20:08:33.607Z,55.24
2017-06-20T20:11:01.167Z,54.98
2017-06-20T20:13:28.738Z,54.93
2017-06-20T20:15:56.376Z,54.50
2017-06-20T20:18:23.924Z,54.68
2017-06-20T20:20:51.504Z,54.66
2017-06-20T20:23:19.095Z,54.57
2017-06-20T20:25:46.680Z,54.65
2017-06-20T20:28:14.478Z,54.82
2017-06-20T20:30:42.041Z,55.15
2017-06-20T20:33:09.606Z,55.82
2017-06-20T20:35:37.129Z,55.77
2017-06-20T20:38:04.689Z,55.70
2017-06-20T20:40:32.669Z,56.55
2017-06-20T20:43:00.410Z,56.47
2017-06-20T20:45:28.181Z,56.45
2017-06-20T20:47:55.982Z,56.68
2017-06-20T20:50:23.510Z,56.86
2017-06-20T20:52:51.152Z,57.04
2017-06-20T20:55:18.671Z,56.93
2017-06-20T20:57:46.181Z,56.97
2017-06-20T21:00:14.276Z,56.97
2017-06-20T21:02:41.787Z,58.19
2017-06-20T21:05:09.301Z,58.65
2017-06-20T21:07:36.877Z,58.62
2017-06-20T21:10:04.433Z,59.19
2017-06-20T21:12:31.964Z,59.71
2017-06-20T21:14:59.549Z,59.99
2017-06-20T21:17:27.138Z,58.84
2017-06-20T21:19:54.669Z,58.92
2017-06-20T21:22:22.234Z,58.92
2017-06-20T21:24:49.770Z,58.89
2017-06-20T21:27:17.284Z,58.94
2017-06-20T21:29:44.956Z,59.25
2017-06-20T21:32:12.533Z,59.62
2017-06-20T21:34:40.097Z,59.54
2017-06-20T21:37:07.648Z,59.63
2017-06-20T21:39:35.223Z,59.91
2017-06-20T21:42:02.787Z,59.84
2017-06-20T21:44:30.349Z,59.72
2017-06-20T21:46:57.990Z,59.97
2017-06-20T21:49:25.561Z,59.92
2017-06-20T21:51:53.151Z,59.81
2017-06-20T21:54:20.722Z,61.00
2017-06-20T21:56:48.281Z,60.55
2017-06-20T21:59:15.818Z,60.81
2017-06-20T22:01:43.402Z,61.31
2017-06-20T22:04:10.908Z,61.27
2017-06-20T22:06:38.419Z,61.77
2017-06-20T22:09:06.037Z,61.22
2017-06-20T22:11:33.553Z,60.83
2017-06-20T22:14:01.086Z,60.94
2017-06-20T22:16:28.991Z,61.49
2017-06-20T22:18:56.489Z,61.07
2017-06-20T22:21:24.007Z,61.19
2017-06-20T22:23:51.626Z,61.42
2017-06-20T22:26:19.145Z,61.23
2017-06-20T22:28:46.938Z,61.83
2017-06-20T22:31:14.524Z,61.52
2017-06-20T22:33:42.099Z,61.74
2017-06-20T22:36:09.613Z,61.64
2017-06-20T22:38:37.256Z,61.74
2017-06-20T22:41:04.766Z,61.97
2017-06-20T22:43:32.275Z,62.04
2017-06-20T22:45:59.887Z,61.94
2017-06-20T22:48:27.440Z,61.79
2017-06-20T22:50:54.961Z,62.51
2017-06-20T22:53:22.560Z,63.66
2017-06-20T22:55:50.114Z,63.65
2017-06-20T22:58:17.716Z,62.69
2017-06-20T23:00:45.425Z,63.52
2017-06-20T23:03:12.940Z,62.68
2017-06-20T23:05:40.471Z,62.98
2017-06-20T23:08:08.051Z,62.55
2017-06-20T23:10:35.575Z,62.81
2017-06-20T23:13:03.088Z,62.92
2017-06-20T23:15:30.671Z,63.06
2017-06-20T23:17:58.198Z,63.20
2017-06-20T23:20:25.733Z,63.24
2017-06-20T23:22:53.308Z,63.47
2017-06-20T23:25:20.826Z,63.38
2017-06-20T23:27:48.334Z,63.94
2017-06-20T23:30:16.046Z,63.88
2017-06-20T23:32:43.587Z,62.63
2017-06-20T23:35:11.109Z,63.26
2017-06-20T23:37:38.680Z,62.87
2017-06-20T23:40:06.221Z,63.04
2017-06-20T23:42:33.720Z,62.91
2017-06-20T23:45:01.324Z,62.63
2017-06-20T23:47:29.211Z,63.52
2017-06-20T23:49:56.779Z,62.86
2017-06-20T23:52:24.385Z,62.82
2017-06-20T23:54:51.896Z,64.28
2017-06-20T23:57:19.462Z,64.88
2017-06-20T23:59:47.065Z,64.25
